Ida — C4CZ2 — position and weather

sailwx.info

Track history (hours):
 
Tides and Currents Weather Stations Pressure Air Temp Water Temp Dewpoint Dewpoint Depression Visibility Wind Speed Wind Dir Waves Ship Positions

Ida

Last reported at 2017-Jan-20 23:33 UTC. Time now 2017-Jan-21 02:15 UTC.
Position N 58°36' E 012°42'.

Length 82 m; draft 3.6 m.

Type: Cargo ship. MMSI: 210319000.

Date/timePositionNaut miles runAvg speedWind from/ knotsBaromVisibWave heightAir tempDewpointWater temp
2017-Jan-20 23:33N 58°36' E 012°42'10 9.9
2017-Jan-20 22:33N 58°29' E 012°30'9 8.5
2017-Jan-20 21:33N 58°23' E 012°18'3 2.9
2017-Jan-20 20:33N 58°20' E 012°20'4 4.5
2017-Jan-20 19:33N 58°16' E 012°16'1 0.7
2017-Jan-20 18:34N 58°16' E 012°15'8 7.7
2017-Jan-20 17:34N 58°09' E 012°08'4 3.6
2017-Jan-20 16:33N 58°05' E 012°09'8 8.2
2017-Jan-20 15:33N 57°57' E 012°06'8 7.7
2017-Jan-20 14:33N 57°50' E 012°01'6 6.2
2017-Jan-20 13:33N 57°44' E 011°60'6 6.0
2017-Jan-20 12:33N 57°41' E 011°50'9 8.8
2017-Jan-20 11:34N 57°35' E 011°38'8 7.9
2017-Jan-20 10:34N 57°27' E 011°36'2 2.1
2017-Jan-20 09:34N 57°28' E 011°33'3 3.2
2017-Jan-20 08:34N 57°25' E 011°32'9 9.0
2017-Jan-20 07:33N 57°33' E 011°23'8 8.3
2017-Jan-20 06:34N 57°35' E 011°08'10 9.9
2017-Jan-20 05:34N 57°42' E 010°55'1010.1
2017-Jan-20 04:34N 57°48' E 010°39'171 9.3
2017-Jan-19 10:10N 55°48' E 006°56'113 9.8
2017-Jan-18 22:33N 54°11' E 005°12'10 9.7
2017-Jan-18 21:33N 54°03' E 005°06'10 9.7
2017-Jan-18 20:34N 53°54' E 005°01'10 9.6
2017-Jan-18 19:33N 53°44' E 004°55'37 8.9
2017-Jan-18 15:21N 53°10' E 004°32'8 8.6
2017-Jan-18 14:27N 53°03' E 004°25'8 8.7
2017-Jan-18 13:33N 52°56' E 004°19'10 8.5
2017-Jan-18 12:22N 52°48' E 004°10'7 8.9
2017-Jan-18 11:33N 52°43' E 004°01'11 9.4
2017-Jan-18 10:23N 52°35' E 003°49'8410.7
2017-Jan-18 02:33N 51°32' E 002°19'9 9.2
2017-Jan-18 01:34N 51°24' E 002°12'8 8.2
2017-Jan-18 00:33N 51°17' E 002°06'7 7.3
2017-Jan-17 23:33N 51°11' E 001°57'7 7.0
2017-Jan-17 22:33N 51°07' E 001°49'7 7.2
2017-Jan-17 21:33N 51°02' E 001°41'8 7.7
2017-Jan-17 20:33N 50°56' E 001°33'68 1.5
2017-Jan-16 00:17N 50°24' W 000°02'5 6.3
2017-Jan-15 23:33N 50°28' E 000°02'8 7.5
2017-Jan-15 22:31N 50°30' E 000°14'10 8.4
2017-Jan-15 21:18N 50°33' E 000°29'8 9.8
2017-Jan-15 20:28N 50°37' E 000°40'3210.9
2017-Jan-15 17:33N 50°59' E 001°17'9 9.0
2017-Jan-15 16:33N 51°05' E 001°28'7 7.0
2017-Jan-15 15:33N 51°09' E 001°37'6 6.0
2017-Jan-15 14:33N 51°15' E 001°40'7 6.8
2017-Jan-15 13:34N 51°21' E 001°43'9 8.5
2017-Jan-15 12:34N 51°30' E 001°44'1110.7
2017-Jan-15 11:33N 51°41' E 001°45'1211.7
2017-Jan-15 10:34N 51°52' E 001°44'1212.3
2017-Jan-15 09:34N 52°04' E 001°49'2511.1
2017-Jan-15 07:18N 52°29' E 001°54'19 6.9
2017-Jan-15 04:33N 52°48' E 001°47'7 7.2
2017-Jan-15 03:34N 52°51' E 001°37'6 6.4
2017-Jan-15 02:34N 52°55' E 001°29'7 6.8
2017-Jan-15 01:33N 52°58' E 001°19'8 7.9
2017-Jan-15 00:33N 53°02' E 001°07'  
2017-Jan-11 08:24N 53°02' E 001°07'6 7.2
2017-Jan-11 07:33N 52°59' E 001°16'7 6.9
2017-Jan-11 06:33N 52°56' E 001°26'7 6.9
2017-Jan-11 05:34N 52°53' E 001°36'7 7.1
2017-Jan-11 04:33N 52°49' E 001°46'  
Track history (hours):
 
Tides and Currents Weather Stations Pressure Air Temp Water Temp Dewpoint Dewpoint Depression Visibility Wind Speed Wind Dir Waves Ship Positions

Ida

Last reported at 2017-Jan-20 23:33 UTC. Time now 2017-Jan-21 02:15 UTC.
Position N 58°36' E 012°42'.

Length 82 m; draft 3.6 m.

Type: Cargo ship. MMSI: 210319000.

Date/timePositionNaut miles runAvg speedWind from/ knotsBaromVisibWave heightAir tempDewpointWater temp
2017-Jan-20 23:33N 58°36' E 012°42'10 9.9
2017-Jan-20 22:33N 58°29' E 012°30'9 8.5
2017-Jan-20 21:33N 58°23' E 012°18'3 2.9
2017-Jan-20 20:33N 58°20' E 012°20'4 4.5
2017-Jan-20 19:33N 58°16' E 012°16'1 0.7
2017-Jan-20 18:34N 58°16' E 012°15'8 7.7
2017-Jan-20 17:34N 58°09' E 012°08'4 3.6
2017-Jan-20 16:33N 58°05' E 012°09'8 8.2
2017-Jan-20 15:33N 57°57' E 012°06'8 7.7
2017-Jan-20 14:33N 57°50' E 012°01'6 6.2
2017-Jan-20 13:33N 57°44' E 011°60'6 6.0
2017-Jan-20 12:33N 57°41' E 011°50'9 8.8
2017-Jan-20 11:34N 57°35' E 011°38'8 7.9
2017-Jan-20 10:34N 57°27' E 011°36'2 2.1
2017-Jan-20 09:34N 57°28' E 011°33'3 3.2
2017-Jan-20 08:34N 57°25' E 011°32'9 9.0
2017-Jan-20 07:33N 57°33' E 011°23'8 8.3
2017-Jan-20 06:34N 57°35' E 011°08'10 9.9
2017-Jan-20 05:34N 57°42' E 010°55'1010.1
2017-Jan-20 04:34N 57°48' E 010°39'171 9.3
2017-Jan-19 10:10N 55°48' E 006°56'113 9.8
2017-Jan-18 22:33N 54°11' E 005°12'10 9.7
2017-Jan-18 21:33N 54°03' E 005°06'10 9.7
2017-Jan-18 20:34N 53°54' E 005°01'10 9.6
2017-Jan-18 19:33N 53°44' E 004°55'37 8.9
2017-Jan-18 15:21N 53°10' E 004°32'8 8.6
2017-Jan-18 14:27N 53°03' E 004°25'8 8.7
2017-Jan-18 13:33N 52°56' E 004°19'10 8.5
2017-Jan-18 12:22N 52°48' E 004°10'7 8.9
2017-Jan-18 11:33N 52°43' E 004°01'11 9.4
2017-Jan-18 10:23N 52°35' E 003°49'8410.7
2017-Jan-18 02:33N 51°32' E 002°19'9 9.2
2017-Jan-18 01:34N 51°24' E 002°12'8 8.2
2017-Jan-18 00:33N 51°17' E 002°06'7 7.3
2017-Jan-17 23:33N 51°11' E 001°57'7 7.0
2017-Jan-17 22:33N 51°07' E 001°49'7 7.2
2017-Jan-17 21:33N 51°02' E 001°41'8 7.7
2017-Jan-17 20:33N 50°56' E 001°33'68 1.5
2017-Jan-16 00:17N 50°24' W 000°02'5 6.3
2017-Jan-15 23:33N 50°28' E 000°02'8 7.5
2017-Jan-15 22:31N 50°30' E 000°14'10 8.4
2017-Jan-15 21:18N 50°33' E 000°29'8 9.8
2017-Jan-15 20:28N 50°37' E 000°40'3210.9
2017-Jan-15 17:33N 50°59' E 001°17'9 9.0
2017-Jan-15 16:33N 51°05' E 001°28'7 7.0
2017-Jan-15 15:33N 51°09' E 001°37'6 6.0
2017-Jan-15 14:33N 51°15' E 001°40'7 6.8
2017-Jan-15 13:34N 51°21' E 001°43'9 8.5
2017-Jan-15 12:34N 51°30' E 001°44'1110.7
2017-Jan-15 11:33N 51°41' E 001°45'1211.7
2017-Jan-15 10:34N 51°52' E 001°44'1212.3
2017-Jan-15 09:34N 52°04' E 001°49'2511.1
2017-Jan-15 07:18N 52°29' E 001°54'19 6.9
2017-Jan-15 04:33N 52°48' E 001°47'7 7.2
2017-Jan-15 03:34N 52°51' E 001°37'6 6.4
2017-Jan-15 02:34N 52°55' E 001°29'7 6.8
2017-Jan-15 01:33N 52°58' E 001°19'8 7.9
2017-Jan-15 00:33N 53°02' E 001°07'  
2017-Jan-11 08:24N 53°02' E 001°07'6 7.2
2017-Jan-11 07:33N 52°59' E 001°16'7 6.9
2017-Jan-11 06:33N 52°56' E 001°26'7 6.9
2017-Jan-11 05:34N 52°53' E 001°36'7 7.1
2017-Jan-11 04:33N 52°49' E 001°46'  

Dump ship's entire track history